createdAt,value
2023-05-07T00:01:48.941Z,4.40
2023-05-07T00:04:17.364Z,4.43
2023-05-07T00:06:45.513Z,4.40
2023-05-07T00:09:13.726Z,4.28
2023-05-07T00:11:43.382Z,5.25
2023-05-07T00:14:11.463Z,4.82
2023-05-07T00:16:39.495Z,4.35
2023-05-07T00:19:07.730Z,3.75
2023-05-07T00:21:35.754Z,4.40
2023-05-07T00:24:03.800Z,4.10
2023-05-07T00:26:35.307Z,4.93
2023-05-07T00:29:04.703Z,4.53
2023-05-07T00:31:33.040Z,3.75
2023-05-07T00:34:01.074Z,3.85
2023-05-07T00:36:29.180Z,4.25
2023-05-07T00:39:01.018Z,4.43
2023-05-07T00:41:29.120Z,4.30
2023-05-07T00:43:57.715Z,4.62
2023-05-07T00:46:27.431Z,4.60
2023-05-07T00:48:56.286Z,5.03
2023-05-07T00:51:28.331Z,4.30
2023-05-07T00:53:56.501Z,4.97
2023-05-07T00:56:25.659Z,4.80
2023-05-07T00:58:53.814Z,4.50
2023-05-07T01:01:22.264Z,4.90
2023-05-07T01:03:52.030Z,4.35
2023-05-07T01:06:22.287Z,4.78
2023-05-07T01:08:53.925Z,4.87
2023-05-07T01:11:22.699Z,4.03
2023-05-07T01:13:52.644Z,4.30
2023-05-07T01:16:21.446Z,4.10
2023-05-07T01:18:50.128Z,4.18
2023-05-07T01:21:22.182Z,4.47
2023-05-07T01:23:51.769Z,4.15
2023-05-07T01:26:20.667Z,4.37
2023-05-07T01:28:48.898Z,4.50
2023-05-07T01:31:19.117Z,3.72
2023-05-07T01:33:50.149Z,4.68
2023-05-07T01:36:20.874Z,4.57
2023-05-07T01:38:51.060Z,3.72
2023-05-07T01:41:19.564Z,3.87
2023-05-07T01:43:48.489Z,3.60
2023-05-07T01:46:17.838Z,3.55
2023-05-07T01:48:47.311Z,4.07
2023-05-07T01:51:15.470Z,3.65
2023-05-07T01:53:44.888Z,4.05
2023-05-07T01:56:14.305Z,3.97
2023-05-07T01:58:42.495Z,4.00
2023-05-07T02:01:10.775Z,3.33
2023-05-07T02:03:39.768Z,3.92
2023-05-07T02:06:08.973Z,4.12
2023-05-07T02:08:37.519Z,3.92
2023-05-07T02:11:06.144Z,3.65
2023-05-07T02:13:36.781Z,3.53
2023-05-07T02:16:06.810Z,3.47
2023-05-07T02:18:36.739Z,3.33
2023-05-07T02:21:05.095Z,4.20
2023-05-07T02:23:33.351Z,4.72
2023-05-07T02:26:06.137Z,3.53
2023-05-07T02:28:36.806Z,4.45
2023-05-07T02:31:05.731Z,4.57
2023-05-07T02:33:35.629Z,4.37
2023-05-07T02:36:08.707Z,4.22
2023-05-07T02:38:37.594Z,4.57
2023-05-07T02:41:08.363Z,4.90
2023-05-07T02:43:38.548Z,5.50
2023-05-07T02:46:08.142Z,5.25
2023-05-07T02:48:37.093Z,6.00
2023-05-07T02:51:06.466Z,5.78
2023-05-07T02:53:34.984Z,5.37
2023-05-07T02:56:03.859Z,6.12
2023-05-07T02:58:31.916Z,6.03
2023-05-07T03:01:01.889Z,5.78
2023-05-07T03:03:30.696Z,5.80
2023-05-07T03:05:59.123Z,5.95
2023-05-07T03:08:27.622Z,5.55
2023-05-07T03:10:56.109Z,5.80
2023-05-07T03:13:24.303Z,5.65
2023-05-07T03:15:52.446Z,5.70
2023-05-07T03:18:22.412Z,5.82
2023-05-07T03:20:50.884Z,5.15
2023-05-07T03:23:19.333Z,5.95
2023-05-07T03:25:47.539Z,5.68
2023-05-07T03:28:15.681Z,6.40
2023-05-07T03:30:44.069Z,6.12
2023-05-07T03:33:12.481Z,6.40
2023-05-07T03:35:42.486Z,6.62
2023-05-07T03:38:10.973Z,6.65
2023-05-07T03:40:39.798Z,5.78
2023-05-07T03:43:07.957Z,6.32
2023-05-07T03:45:36.931Z,6.00
2023-05-07T03:48:06.652Z,6.05
2023-05-07T03:50:35.153Z,5.87
2023-05-07T03:53:04.665Z,5.65
2023-05-07T03:55:33.212Z,6.00
2023-05-07T03:58:01.622Z,6.10
2023-05-07T04:00:30.301Z,6.85
2023-05-07T04:03:00.413Z,6.00
2023-05-07T04:05:28.916Z,6.95
2023-05-07T04:07:57.446Z,6.10
2023-05-07T04:10:29.180Z,6.60
2023-05-07T04:12:58.141Z,6.18
2023-05-07T04:15:26.862Z,6.10
2023-05-07T04:17:55.117Z,6.30
2023-05-07T04:20:23.636Z,6.68
2023-05-07T04:22:52.828Z,6.62
2023-05-07T04:25:21.071Z,6.43
2023-05-07T04:27:51.703Z,6.97
2023-05-07T04:30:20.744Z,6.53
2023-05-07T04:32:49.922Z,6.55
2023-05-07T04:35:18.603Z,7.00
2023-05-07T04:37:47.054Z,6.47
2023-05-07T04:40:15.824Z,7.50
2023-05-07T04:42:44.395Z,6.35
2023-05-07T04:45:14.526Z,6.78
2023-05-07T04:47:42.919Z,6.70
2023-05-07T04:50:12.175Z,6.32
2023-05-07T04:52:41.347Z,5.82
2023-05-07T04:55:10.981Z,6.10
2023-05-07T04:57:40.600Z,5.87
2023-05-07T05:00:11.447Z,5.78
2023-05-07T05:02:42.969Z,5.65
2023-05-07T05:05:12.168Z,5.50
2023-05-07T05:07:40.462Z,5.25
2023-05-07T05:10:10.092Z,6.03
2023-05-07T05:12:39.273Z,5.15
2023-05-07T05:15:08.950Z,5.25
2023-05-07T05:17:37.649Z,5.12
2023-05-07T05:20:10.826Z,5.32
2023-05-07T05:22:49.045Z,5.50
2023-05-07T05:25:17.648Z,5.30
2023-05-07T05:27:45.740Z,5.30
2023-05-07T05:30:14.952Z,5.00
2023-05-07T05:32:44.596Z,5.03
2023-05-07T05:35:14.903Z,5.50
2023-05-07T05:37:43.568Z,5.05
2023-05-07T05:40:12.829Z,4.62
2023-05-07T05:42:41.220Z,5.07
2023-05-07T05:45:11.207Z,4.15
2023-05-07T05:47:42.575Z,4.57
2023-05-07T05:50:11.665Z,3.90
2023-05-07T05:52:41.802Z,3.95
2023-05-07T05:55:10.929Z,4.03
2023-05-07T05:57:39.939Z,4.07
2023-05-07T06:00:10.141Z,3.90
2023-05-07T06:02:46.804Z,4.35
2023-05-07T06:05:16.486Z,3.67
2023-05-07T06:07:46.187Z,3.78
2023-05-07T06:10:14.581Z,3.60
2023-05-07T06:12:44.972Z,3.80
2023-05-07T06:15:13.274Z,3.53
2023-05-07T06:17:41.939Z,3.55
2023-05-07T06:20:11.470Z,3.97
2023-05-07T06:22:40.403Z,3.20
2023-05-07T06:25:11.723Z,3.75
2023-05-07T06:27:40.883Z,3.70
2023-05-07T06:30:10.975Z,3.95
2023-05-07T06:32:39.633Z,3.72
2023-05-07T06:35:08.102Z,3.72
2023-05-07T06:37:39.327Z,3.53
2023-05-07T06:40:09.230Z,3.42
2023-05-07T06:42:39.301Z,3.40
2023-05-07T06:45:20.997Z,3.03
2023-05-07T06:47:51.190Z,2.95
2023-05-07T06:50:20.315Z,3.58
2023-05-07T06:52:50.456Z,3.80
2023-05-07T06:55:22.620Z,2.70
2023-05-07T06:57:52.467Z,3.22
2023-05-07T07:00:21.972Z,3.62
2023-05-07T07:02:51.914Z,3.20
2023-05-07T07:05:21.243Z,3.00
2023-05-07T07:07:55.811Z,3.65
2023-05-07T07:10:24.685Z,2.67
2023-05-07T07:12:55.052Z,3.17
2023-05-07T07:15:25.951Z,2.90
2023-05-07T07:17:54.983Z,3.78
2023-05-07T07:20:24.176Z,3.70
2023-05-07T07:22:52.542Z,3.50
2023-05-07T07:25:20.921Z,3.58
2023-05-07T07:27:50.754Z,3.37
2023-05-07T07:30:20.326Z,3.42
2023-05-07T07:32:48.597Z,3.20
2023-05-07T07:35:17.759Z,2.92
2023-05-07T07:37:50.883Z,2.70
2023-05-07T07:40:19.602Z,3.00
2023-05-07T07:42:47.902Z,3.05
2023-05-07T07:45:16.279Z,2.65
2023-05-07T07:47:46.192Z,2.87
2023-05-07T07:50:21.995Z,2.80
2023-05-07T07:52:54.308Z,2.67
2023-05-07T07:55:24.033Z,3.05
2023-05-07T07:57:53.049Z,2.30
2023-05-07T08:00:22.315Z,2.70
2023-05-07T08:02:59.058Z,2.67
2023-05-07T08:05:28.806Z,3.25
2023-05-07T08:08:00.726Z,2.45
2023-05-07T08:10:29.774Z,2.80
2023-05-07T08:12:58.302Z,2.50
2023-05-07T08:15:26.962Z,2.42
2023-05-07T08:17:58.509Z,2.80
2023-05-07T08:20:27.536Z,2.37
2023-05-07T08:22:56.544Z,2.22
2023-05-07T08:25:25.848Z,2.60
2023-05-07T08:27:55.422Z,2.47
2023-05-07T08:30:24.973Z,2.87
2023-05-07T08:32:53.923Z,3.00
2023-05-07T08:35:23.989Z,3.15
2023-05-07T08:37:52.562Z,3.12
2023-05-07T08:40:21.539Z,2.70
2023-05-07T08:42:51.868Z,3.00
2023-05-07T08:45:21.936Z,3.00
2023-05-07T08:47:54.881Z,3.15
2023-05-07T08:50:25.178Z,3.42
2023-05-07T08:52:54.089Z,3.10
2023-05-07T08:55:22.915Z,3.08
2023-05-07T08:57:54.054Z,3.28
2023-05-07T09:00:23.167Z,3.87
2023-05-07T09:02:52.876Z,4.25
2023-05-07T09:05:21.572Z,4.20
2023-05-07T09:07:53.931Z,4.00
2023-05-07T09:10:25.751Z,3.72
2023-05-07T09:12:54.861Z,3.47
2023-05-07T09:15:26.062Z,4.05
2023-05-07T09:18:03.662Z,4.35
2023-05-07T09:20:33.559Z,3.95
2023-05-07T09:23:04.440Z,4.82
2023-05-07T09:25:33.787Z,3.80
2023-05-07T09:28:03.805Z,4.18
2023-05-07T09:30:34.749Z,4.50
2023-05-07T09:33:05.312Z,3.83
2023-05-07T09:35:34.564Z,4.37
2023-05-07T09:38:05.900Z,4.60
2023-05-07T09:40:34.565Z,4.60
2023-05-07T09:43:12.718Z,4.12
2023-05-07T09:45:45.109Z,4.53
2023-05-07T09:48:17.949Z,3.97
2023-05-07T09:50:51.319Z,4.68
2023-05-07T09:53:22.141Z,4.43
2023-05-07T09:55:50.941Z,4.07
2023-05-07T09:58:22.042Z,4.12
2023-05-07T10:00:52.402Z,4.00
2023-05-07T10:03:22.127Z,4.43
2023-05-07T10:05:52.250Z,4.70
2023-05-07T10:08:22.820Z,3.97
2023-05-07T10:10:54.439Z,4.75
2023-05-07T10:13:23.363Z,4.70
2023-05-07T10:15:52.970Z,5.15
2023-05-07T10:18:24.600Z,4.72
2023-05-07T10:20:56.367Z,4.68
2023-05-07T10:23:28.065Z,4.90
2023-05-07T10:26:08.325Z,4.57
2023-05-07T10:28:45.715Z,4.75
2023-05-07T10:31:35.502Z,3.92
2023-05-07T10:34:13.132Z,4.60
2023-05-07T10:36:43.849Z,4.40
2023-05-07T10:39:14.618Z,4.20
2023-05-07T10:41:43.792Z,4.37
2023-05-07T10:44:12.804Z,4.70
2023-05-07T10:46:41.836Z,4.80
2023-05-07T10:49:17.693Z,4.00
2023-05-07T10:51:48.222Z,4.10
2023-05-07T10:54:25.996Z,3.90
2023-05-07T10:56:54.708Z,4.82
2023-05-07T10:59:42.704Z,4.95
2023-05-07T11:02:15.572Z,5.07
2023-05-07T11:04:44.575Z,4.40
2023-05-07T11:07:30.316Z,4.35
2023-05-07T11:10:06.583Z,4.70
2023-05-07T11:12:55.993Z,3.87
2023-05-07T11:15:45.658Z,4.35
2023-05-07T11:18:18.574Z,4.05
2023-05-07T11:20:54.115Z,4.20
2023-05-07T11:24:02.333Z,4.53
2023-05-07T11:26:43.170Z,4.37
2023-05-07T11:29:17.447Z,4.60
2023-05-07T11:31:51.762Z,3.78
2023-05-07T11:34:24.658Z,4.50
2023-05-07T11:36:55.050Z,4.22
2023-05-07T11:39:29.928Z,4.00
2023-05-07T11:42:00.244Z,3.72
2023-05-07T11:44:45.095Z,3.83
2023-05-07T11:47:13.672Z,3.40
2023-05-07T11:49:42.474Z,3.12
2023-05-07T11:52:10.605Z,3.40
2023-05-07T11:54:39.293Z,3.40
2023-05-07T11:57:09.308Z,2.97
2023-05-07T11:59:42.089Z,2.95
2023-05-07T12:02:10.851Z,3.15
2023-05-07T12:04:40.283Z,2.95
2023-05-07T12:07:13.013Z,3.37
2023-05-07T12:09:41.587Z,2.90
2023-05-07T12:12:11.442Z,3.20
2023-05-07T12:14:40.610Z,3.47
2023-05-07T12:17:10.104Z,3.58
2023-05-07T12:19:39.969Z,3.08
2023-05-07T12:22:10.220Z,3.62
2023-05-07T12:24:48.160Z,3.50
2023-05-07T12:27:19.066Z,4.03
2023-05-07T12:29:48.525Z,3.12
2023-05-07T12:32:17.917Z,3.58
2023-05-07T12:34:46.220Z,3.65
2023-05-07T12:37:14.900Z,3.72
2023-05-07T12:39:49.205Z,3.90
2023-05-07T12:42:24.507Z,3.83
2023-05-07T12:44:53.266Z,4.07
2023-05-07T12:47:22.871Z,4.18
2023-05-07T12:49:51.203Z,3.75
2023-05-07T12:52:19.521Z,4.28
2023-05-07T12:54:47.547Z,3.20
2023-05-07T12:57:15.587Z,3.37
2023-05-07T12:59:45.792Z,2.90
2023-05-07T13:02:13.769Z,2.60
2023-05-07T13:04:42.220Z,2.83
2023-05-07T13:07:10.625Z,3.47
2023-05-07T13:09:39.046Z,2.78
2023-05-07T13:12:08.177Z,2.60
2023-05-07T13:14:36.498Z,3.22
2023-05-07T13:17:05.851Z,2.53
2023-05-07T13:19:33.932Z,2.72
2023-05-07T13:22:02.586Z,2.50
2023-05-07T13:24:30.653Z,2.17
2023-05-07T13:26:58.645Z,2.70
2023-05-07T13:29:30.960Z,2.53
2023-05-07T13:31:59.370Z,2.95
2023-05-07T13:34:30.286Z,2.75
2023-05-07T13:36:58.524Z,2.47
2023-05-07T13:39:30.403Z,3.15
2023-05-07T13:41:59.033Z,2.53
2023-05-07T13:44:27.230Z,2.83
2023-05-07T13:46:55.424Z,2.85
2023-05-07T13:49:23.902Z,8.30
2023-05-07T13:51:53.324Z,2.72
2023-05-07T13:54:21.845Z,2.90
2023-05-07T13:56:50.193Z,2.50
2023-05-07T13:59:18.715Z,2.53
2023-05-07T14:01:50.684Z,3.17
2023-05-07T14:04:19.164Z,2.45
2023-05-07T14:06:47.250Z,2.53
2023-05-07T14:09:16.740Z,2.58
2023-05-07T14:11:45.542Z,2.53
2023-05-07T14:14:14.136Z,2.05
2023-05-07T14:16:42.416Z,2.53
2023-05-07T14:19:11.069Z,3.58
2023-05-07T14:21:39.122Z,2.33
2023-05-07T14:24:08.751Z,1.77
2023-05-07T14:26:38.608Z,1.87
2023-05-07T14:29:08.845Z,2.17
2023-05-07T14:31:38.412Z,1.95
2023-05-07T14:34:06.905Z,1.55
2023-05-07T14:36:35.685Z,1.50
2023-05-07T14:39:04.493Z,1.60
2023-05-07T14:41:36.984Z,1.52
2023-05-07T14:44:09.813Z,2.62
2023-05-07T14:46:39.608Z,6.43
2023-05-07T14:49:17.374Z,3.03
2023-05-07T14:51:46.597Z,1.48
2023-05-07T14:54:15.863Z,2.10
2023-05-07T14:56:45.786Z,1.40
2023-05-07T14:59:16.987Z,1.40
2023-05-07T15:01:46.562Z,1.25
2023-05-07T15:04:15.554Z,1.23
2023-05-07T15:06:44.147Z,1.77
2023-05-07T15:09:12.120Z,1.73
2023-05-07T15:11:40.406Z,2.17
2023-05-07T15:14:08.777Z,2.10
2023-05-07T15:16:38.279Z,2.03
2023-05-07T15:19:06.679Z,2.10
2023-05-07T15:21:35.776Z,1.60
2023-05-07T15:24:03.951Z,1.42
2023-05-07T15:26:33.034Z,1.35
2023-05-07T15:29:01.495Z,1.50
2023-05-07T15:31:30.853Z,1.60
2023-05-07T15:34:02.288Z,1.50
2023-05-07T15:36:30.871Z,1.67
2023-05-07T15:38:59.264Z,1.65
2023-05-07T15:41:28.553Z,1.80
2023-05-07T15:43:56.983Z,1.95
2023-05-07T15:46:26.872Z,1.85
2023-05-07T15:48:58.690Z,1.67
2023-05-07T15:51:29.078Z,1.42
2023-05-07T15:53:57.480Z,1.75
2023-05-07T15:56:26.259Z,2.00
2023-05-07T15:58:54.636Z,1.75
2023-05-07T16:01:25.870Z,2.10
2023-05-07T16:03:54.447Z,1.70
2023-05-07T16:06:22.739Z,2.50
2023-05-07T16:08:52.213Z,2.20
2023-05-07T16:11:20.612Z,2.20
2023-05-07T16:13:48.684Z,2.25
2023-05-07T16:16:16.785Z,2.28
2023-05-07T16:18:45.058Z,2.72
2023-05-07T16:21:13.768Z,2.53
2023-05-07T16:23:42.165Z,2.53
2023-05-07T16:26:13.701Z,2.20
2023-05-07T16:28:41.782Z,2.20
2023-05-07T16:31:10.092Z,2.62
2023-05-07T16:33:38.495Z,2.47
2023-05-07T16:36:07.007Z,2.53
2023-05-07T16:38:35.153Z,2.45
2023-05-07T16:41:05.670Z,2.85
2023-05-07T16:43:35.188Z,2.47
2023-05-07T16:46:03.597Z,2.37
2023-05-07T16:48:32.157Z,2.37
2023-05-07T16:51:00.301Z,2.72
2023-05-07T16:53:28.552Z,2.20
2023-05-07T16:55:57.705Z,2.15
2023-05-07T16:58:27.290Z,2.60
2023-05-07T17:00:57.011Z,2.37
2023-05-07T17:03:27.045Z,2.83
2023-05-07T17:05:56.147Z,2.53
2023-05-07T17:08:24.131Z,2.80
2023-05-07T17:10:54.568Z,2.72
2023-05-07T17:13:22.947Z,2.55
2023-05-07T17:15:51.199Z,2.70
2023-05-07T17:18:25.745Z,2.50
2023-05-07T17:20:54.431Z,3.20
2023-05-07T17:23:22.639Z,2.80
2023-05-07T17:25:50.673Z,2.70
2023-05-07T17:28:18.941Z,2.50
2023-05-07T17:30:48.196Z,2.80
2023-05-07T17:33:21.527Z,3.15
2023-05-07T17:35:56.907Z,3.00
2023-05-07T17:38:25.220Z,2.70
2023-05-07T17:40:53.664Z,2.60
2023-05-07T17:43:23.437Z,2.90
2023-05-07T17:45:52.497Z,2.90
2023-05-07T17:48:21.327Z,2.92
2023-05-07T17:50:49.334Z,3.65
2023-05-07T17:53:19.373Z,3.03
2023-05-07T17:55:47.910Z,3.45
2023-05-07T17:58:16.405Z,2.75
2023-05-07T18:00:52.823Z,2.87
2023-05-07T18:04:01.531Z,2.80
2023-05-07T18:06:29.785Z,3.50
2023-05-07T18:08:59.581Z,2.50
2023-05-07T18:11:32.289Z,3.45
2023-05-07T18:14:01.013Z,3.00
2023-05-07T18:16:29.109Z,3.90
2023-05-07T18:18:57.147Z,4.72
2023-05-07T18:21:25.623Z,3.12
2023-05-07T18:23:53.714Z,3.08
2023-05-07T18:26:23.223Z,3.30
2023-05-07T18:28:51.731Z,2.78
2023-05-07T18:31:20.702Z,3.20
2023-05-07T18:33:52.498Z,3.40
2023-05-07T18:36:20.934Z,3.70
2023-05-07T18:38:51.688Z,2.87
2023-05-07T18:41:20.223Z,3.33
2023-05-07T18:43:49.683Z,3.30
2023-05-07T18:46:17.806Z,3.30
2023-05-07T18:48:46.174Z,2.60
2023-05-07T18:51:14.339Z,3.00
2023-05-07T18:53:42.705Z,3.05
2023-05-07T18:56:11.076Z,3.20
2023-05-07T18:58:39.174Z,3.58
2023-05-07T19:01:09.003Z,2.78
2023-05-07T19:03:37.702Z,2.83
2023-05-07T19:06:06.484Z,3.03
2023-05-07T19:08:34.554Z,3.35
2023-05-07T19:11:04.044Z,2.97
2023-05-07T19:13:32.520Z,2.90
2023-05-07T19:16:00.942Z,2.60
2023-05-07T19:18:31.906Z,3.10
2023-05-07T19:21:00.032Z,3.15
2023-05-07T19:23:28.517Z,2.97
2023-05-07T19:25:56.934Z,3.28
2023-05-07T19:28:26.352Z,3.00
2023-05-07T19:30:54.526Z,2.85
2023-05-07T19:33:24.417Z,3.60
2023-05-07T19:35:58.318Z,3.45
2023-05-07T19:38:27.138Z,3.62
2023-05-07T19:40:55.833Z,3.80
2023-05-07T19:43:23.930Z,3.87
2023-05-07T19:45:54.843Z,2.90
2023-05-07T19:48:23.119Z,3.50
2023-05-07T19:50:51.486Z,4.18
2023-05-07T19:53:21.162Z,3.40
2023-05-07T19:55:49.256Z,3.40
2023-05-07T19:58:17.422Z,3.00
2023-05-07T20:00:45.752Z,3.42
2023-05-07T20:03:18.612Z,3.03
2023-05-07T20:05:47.421Z,3.72
2023-05-07T20:08:15.836Z,3.15
2023-05-07T20:10:45.349Z,3.17
2023-05-07T20:13:13.771Z,3.47
2023-05-07T20:15:42.399Z,3.67
2023-05-07T20:18:10.916Z,3.35
2023-05-07T20:20:38.953Z,3.30
2023-05-07T20:23:07.901Z,3.78
2023-05-07T20:25:36.031Z,3.42
2023-05-07T20:28:05.950Z,3.62
2023-05-07T20:30:34.326Z,3.70
2023-05-07T20:33:04.274Z,3.65
2023-05-07T20:35:32.943Z,4.22
2023-05-07T20:38:01.742Z,4.03
2023-05-07T20:40:32.042Z,3.80
2023-05-07T20:43:00.466Z,3.30
2023-05-07T20:45:30.663Z,3.83
2023-05-07T20:47:58.887Z,3.37
2023-05-07T20:50:27.339Z,3.20
2023-05-07T20:52:55.997Z,3.47
2023-05-07T20:55:24.263Z,3.00
2023-05-07T20:57:52.584Z,3.70
2023-05-07T21:00:21.454Z,3.12
2023-05-07T21:02:51.139Z,3.08
2023-05-07T21:05:19.438Z,3.20
2023-05-07T21:07:47.784Z,2.65
2023-05-07T21:10:16.153Z,3.42
2023-05-07T21:12:44.398Z,3.20
2023-05-07T21:15:12.746Z,3.22
2023-05-07T21:17:41.153Z,3.20
2023-05-07T21:20:12.253Z,3.20
2023-05-07T21:22:41.067Z,2.72
2023-05-07T21:25:11.882Z,2.97
2023-05-07T21:27:41.745Z,2.62
2023-05-07T21:30:12.063Z,2.80
2023-05-07T21:32:40.260Z,2.67
2023-05-07T21:35:10.624Z,2.97
2023-05-07T21:37:39.194Z,2.67
2023-05-07T21:40:08.826Z,3.33
2023-05-07T21:42:37.388Z,2.87
2023-05-07T21:45:06.829Z,2.87
2023-05-07T21:47:35.025Z,2.58
2023-05-07T21:50:03.321Z,3.08
2023-05-07T21:52:32.704Z,2.87
2023-05-07T21:55:01.004Z,2.97
2023-05-07T21:57:33.218Z,2.60
2023-05-07T22:00:01.462Z,2.97
2023-05-07T22:02:29.974Z,2.50
2023-05-07T22:04:58.596Z,2.75
2023-05-07T22:07:26.723Z,3.50
2023-05-07T22:09:56.085Z,3.17
2023-05-07T22:12:24.405Z,2.80
2023-05-07T22:14:52.593Z,3.35
2023-05-07T22:17:20.700Z,2.97
2023-05-07T22:19:49.015Z,2.50
2023-05-07T22:22:19.063Z,2.75
2023-05-07T22:24:47.316Z,3.05
2023-05-07T22:27:17.034Z,2.85
2023-05-07T22:29:45.062Z,3.12
2023-05-07T22:32:13.458Z,3.17
2023-05-07T22:34:41.771Z,2.87
2023-05-07T22:37:09.770Z,3.90
2023-05-07T22:39:37.735Z,3.40
2023-05-07T22:42:07.465Z,3.53
2023-05-07T22:44:36.836Z,2.95
2023-05-07T22:47:05.016Z,3.00
2023-05-07T22:49:35.270Z,2.95
2023-05-07T22:52:03.322Z,2.50
2023-05-07T22:54:32.108Z,3.70
2023-05-07T22:57:00.615Z,2.83
2023-05-07T22:59:28.812Z,3.65
2023-05-07T23:01:58.256Z,2.87
2023-05-07T23:04:27.422Z,2.80
2023-05-07T23:06:55.582Z,3.33
2023-05-07T23:09:23.896Z,2.90
2023-05-07T23:11:52.144Z,2.87
2023-05-07T23:14:21.230Z,3.05
2023-05-07T23:16:50.562Z,2.58
2023-05-07T23:19:20.265Z,2.87
2023-05-07T23:21:48.410Z,3.08
2023-05-07T23:24:16.507Z,3.00
2023-05-07T23:26:45.152Z,3.40
2023-05-07T23:29:13.184Z,2.92
2023-05-07T23:31:41.316Z,2.92
2023-05-07T23:34:09.640Z,2.90
2023-05-07T23:36:38.968Z,2.78
2023-05-07T23:39:07.697Z,3.00
2023-05-07T23:41:36.135Z,2.80
2023-05-07T23:44:04.433Z,2.97
2023-05-07T23:46:32.610Z,3.22
2023-05-07T23:49:01.107Z,2.72
2023-05-07T23:51:29.176Z,2.85
2023-05-07T23:53:58.484Z,3.03
2023-05-07T23:56:26.727Z,2.87
2023-05-07T23:58:54.753Z,3.28
